Star Princess — ZCDD6 — position and weather

sailwx.info

Track history (hours):
 
Tides and Currents Weather Stations Pressure Air Temp Water Temp Dewpoint Dewpoint Depression Visibility Wind Speed Wind Dir Waves Ship Positions

Star Princess

Operator: Princess Cruises

Last reported at 2019-Sep-17 08:00 UTC. Time now 2019-Sep-17 08:19 UTC.
Position N 54°19' W 131°15'.

Length 289.6 m; beam 36 m; draft 8.4 m.

Type: Ship. MMSI: 310361000.

Date/timePositionNaut miles runAvg speedWind from/ knotsBaromVisibWave heightAir tempDewpointWater temp
2019-Sep-17 08:00N 54°19' W 131°15'612.8
2019-Sep-17 07:30N 54°13' W 131°15'713.3
2019-Sep-17 07:00N 54°06' W 131°15'713.6
2019-Sep-17 06:30N 53°60' W 131°13'713.8
2019-Sep-17 06:00N 53°53' W 131°11'714.4
2019-Sep-17 05:30N 53°46' W 131°08'917.9
2019-Sep-17 05:00N 53°37' W 131°05'917.8
2019-Sep-17 04:31N 53°28' W 131°01'917.7
2019-Sep-17 04:00N 53°20' W 130°57'1217.8
2019-Sep-17 03:18N 53°09' W 130°49'2921.9
2019-Sep-17 02:00N 52°42' W 130°30'6015.0 130 / 301001.610.8 14.513.216.0
2019-Sep-16 22:00N 51°48' W 129°48'1539.5 170 / 231001.610.8 15.512.416.0
2019-Sep-16 21:37N 51°34' W 129°43'2718.5
2019-Sep-16 20:09N 51°09' W 129°26'518.7
2019-Sep-16 19:53N 51°04' W 129°23'617.5
2019-Sep-16 19:30N 50°58' W 129°18'918.1
2019-Sep-16 19:00N 50°50' W 129°13'917.0
2019-Sep-16 18:27N 50°42' W 129°04'714.6
2019-Sep-16 18:00N 50°36' W 129°00'423.2 190 / 121007.310.8 14.010.217.0
2019-Sep-16 17:48N 50°34' W 128°54'517.3
2019-Sep-16 17:31N 50°30' W 128°49'1017.6
2019-Sep-16 16:55N 50°22' W 128°39'1117.8
2019-Sep-16 16:17N 50°13' W 128°28'4318.8
2019-Sep-16 14:00N 49°42' W 127°42'4516.3 030 / 71012.110.8 14.011.217.0
2019-Sep-16 11:14N 49°14' W 126°48'517.9
2019-Sep-16 10:58N 49°11' W 126°42'818.1
2019-Sep-16 10:30N 49°07' W 126°31'918.2
2019-Sep-16 10:00N 49°02' W 126°19'918.6
2019-Sep-16 09:30N 48°58' W 126°06'918.8
2019-Sep-16 09:00N 48°54' W 125°53'918.4
2019-Sep-16 08:30N 48°50' W 125°41'918.6
2019-Sep-16 08:00N 48°47' W 125°28'918.6
2019-Sep-16 07:30N 48°42' W 125°16'918.9
2019-Sep-16 07:00N 48°38' W 125°03'918.2
2019-Sep-16 06:30N 48°33' W 124°51'918.6
2019-Sep-16 06:00N 48°29' W 124°38'918.7
2019-Sep-16 05:30N 48°26' W 124°25'1019.0
2019-Sep-16 05:00N 48°22' W 124°12'1019.5
2019-Sep-16 04:30N 48°18' W 123°58'1019.3
2019-Sep-16 04:00N 48°16' W 123°44'1019.4
2019-Sep-16 03:30N 48°15' W 123°30'816.3
2019-Sep-16 03:00N 48°09' W 123°21'916.8
2019-Sep-16 02:30N 48°12' W 123°10'917.6
2019-Sep-16 02:00N 48°12' W 122°57'8517.2
2019-Sep-16 02:00N 48°06' W 122°48'5 7.8 280 / 111010.1 5.4 13.011.112.0
2019-Sep-16 01:19N 48°08' W 122°41'516.6
2019-Sep-16 01:00N 48°03' W 122°38'816.5
2019-Sep-16 00:30N 47°56' W 122°30'917.7
2019-Sep-16 00:00N 47°48' W 122°26'917.6
2019-Sep-15 23:30N 47°39' W 122°27'3 6.0
2019-Sep-15 23:00N 47°38' W 122°23'0 0.0
2019-Sep-15 22:28N 47°38' W 122°23'0 0.0
2019-Sep-15 22:01N 47°38' W 122°23'0 0.0
2019-Sep-15 21:30N 47°38' W 122°23'0 0.0
2019-Sep-15 21:00N 47°38' W 122°23'0 0.0
2019-Sep-15 20:30N 47°38' W 122°23'0 0.0
2019-Sep-15 20:00N 47°38' W 122°23'0 0.0
2019-Sep-15 19:29N 47°38' W 122°23'0 0.0
2019-Sep-15 18:59N 47°38' W 122°23'0 0.0
2019-Sep-15 18:29N 47°38' W 122°23'0 0.0
2019-Sep-15 17:59N 47°38' W 122°23'0 0.0
2019-Sep-15 17:28N 47°38' W 122°23'0 0.0
2019-Sep-15 16:58N 47°38' W 122°23'0 0.0
2019-Sep-15 16:28N 47°38' W 122°23'0 0.0
2019-Sep-15 16:00N 47°38' W 122°23'0 0.0
2019-Sep-15 15:29N 47°38' W 122°23'0 0.0
2019-Sep-15 14:59N 47°38' W 122°23'0 0.0
2019-Sep-15 14:29N 47°38' W 122°23'0 0.0
2019-Sep-15 13:59N 47°38' W 122°23'0 0.0
2019-Sep-15 13:29N 47°38' W 122°23'0 0.3
2019-Sep-15 13:00N 47°38' W 122°23'3 5.0
2019-Sep-15 12:30N 47°38' W 122°27'713.3
2019-Sep-15 12:00N 47°44' W 122°27'612.9
2019-Sep-15 11:30N 47°51' W 122°29'612.3
2019-Sep-15 11:00N 47°56' W 122°32'713.7
2019-Sep-15 10:30N 48°02' W 122°39'612.7
2019-Sep-15 10:00N 48°08' W 122°43'713.7
2019-Sep-15 09:29N 48°11' W 122°52'714.1
2019-Sep-15 09:00N 48°12' W 123°02'816.8
2019-Sep-15 08:30N 48°11' W 123°15'714.6
2019-Sep-15 08:00N 48°10' W 123°25'510.8
2019-Sep-15 07:31N 48°15' W 123°30'815.2
2019-Sep-15 07:00N 48°22' W 123°26'4 7.0
2019-Sep-15 06:30N 48°25' W 123°24'0 0.0
2019-Sep-15 06:00N 48°25' W 123°24'0 0.0
2019-Sep-15 05:30N 48°25' W 123°24'0 0.0
2019-Sep-15 04:59N 48°25' W 123°24'0 0.0
2019-Sep-15 04:29N 48°25' W 123°24'0 0.0
2019-Sep-15 03:59N 48°25' W 123°24'0 0.0
2019-Sep-15 03:29N 48°25' W 123°24'0 0.0
2019-Sep-15 02:59N 48°25' W 123°24'0 0.0
2019-Sep-15 02:28N 48°25' W 123°24'0 0.0
2019-Sep-15 01:58N 48°25' W 123°24'0 0.0
2019-Sep-15 01:29N 48°25' W 123°24'1 1.2
2019-Sep-15 01:00N 48°25' W 123°24'611.1
2019-Sep-15 00:31N 48°19' W 123°25'612.2
2019-Sep-15 00:00N 48°14' W 123°31'612.7
2019-Sep-14 23:30N 48°14' W 123°40'713.0
2019-Sep-14 23:00N 48°14' W 123°50'713.1
2019-Sep-14 22:31N 48°15' W 123°60'713.4
2019-Sep-14 22:00N 48°18' W 124°09'713.4
2019-Sep-14 21:30N 48°21' W 124°18'713.3
2019-Sep-14 21:01N 48°24' W 124°27'713.3
2019-Sep-14 20:30N 48°26' W 124°36'713.4
2019-Sep-14 20:00N 48°29' W 124°46'713.9
2019-Sep-14 19:30N 48°29' W 124°56'713.8
2019-Sep-14 19:00N 48°29' W 125°06'612.7
2019-Sep-14 18:30N 48°31' W 125°15'612.3
2019-Sep-14 18:00N 48°35' W 125°23'6362.7
2019-Sep-14 18:00N 48°30' W 125°18'1428.3 190 / 381010.1 5.4 16.014.315.0
2019-Sep-14 17:30N 48°39' W 125°33'817.0
2019-Sep-14 17:00N 48°44' W 125°44'816.8
2019-Sep-14 16:30N 48°49' W 125°54'917.1
2019-Sep-14 16:00N 48°54' W 126°05'917.3
2019-Sep-14 15:30N 48°59' W 126°15'917.4
2019-Sep-14 15:00N 49°04' W 126°26'917.5
2019-Sep-14 14:29N 49°09' W 126°38'918.3
2019-Sep-14 14:00N 49°14' W 126°49'2174.1
2019-Sep-14 14:00N 49°12' W 126°48'8718.1 200 / 331013.1 5.4 16.515.718.0
2019-Sep-14 09:13N 50°08' W 128°30'2118.2
2019-Sep-14 08:05N 50°22' W 128°53'518.2
2019-Sep-14 07:49N 50°26' W 128°59'1918.0
2019-Sep-14 06:45N 50°38' W 129°22'5815.6
2019-Sep-14 03:00N 51°18' W 130°30'25521.3 220 / 321015.3 5.4 15.514.617.0
2019-Sep-13 15:00N 55°00' W 134°00'   170 / 301003.1 5.4 13.512.612.0
2019-Sep-10 12:34N 55°13' W 131°24'712.1
2019-Sep-10 11:57N 55°10' W 131°12'1211.8
2019-Sep-10 10:58N 54°58' W 131°08'612.1
2019-Sep-10 10:30N 54°53' W 131°08'611.4
2019-Sep-10 10:00N 54°47' W 131°10'712.3
2019-Sep-10 09:27N 54°41' W 131°14'511.7
2019-Sep-10 09:00N 54°36' W 131°16'612.7
2019-Sep-10 08:30N 54°29' W 131°16'713.5
2019-Sep-10 08:00N 54°23' W 131°15'713.8
2019-Sep-10 07:30N 54°16' W 131°15'713.7
2019-Sep-10 07:00N 54°09' W 131°15'713.5
2019-Sep-10 06:30N 54°02' W 131°14'713.7
2019-Sep-10 06:00N 53°55' W 131°12'713.6
2019-Sep-10 05:30N 53°49' W 131°09'815.4
2019-Sep-10 05:00N 53°41' W 131°06'918.4
2019-Sep-10 04:31N 53°32' W 131°03'918.4
2019-Sep-10 04:00N 53°23' W 130°59'918.2
2019-Sep-10 03:30N 53°15' W 130°53'1618.4
2019-Sep-10 02:39N 53°01' W 130°43'1320.0
2019-Sep-10 02:00N 52°48' W 130°36'1016.0 330 / 151011.310.8 17.014.416.0
2019-Sep-10 01:23N 52°40' W 130°28'718.1
2019-Sep-10 01:00N 52°33' W 130°24'918.1
2019-Sep-10 00:30N 52°25' W 130°18'918.3
2019-Sep-10 00:00N 52°16' W 130°13'918.4
2019-Sep-09 23:30N 52°08' W 130°07'918.1
2019-Sep-09 23:00N 51°59' W 130°01'917.8
2019-Sep-09 22:30N 51°51' W 129°55'917.3
2019-Sep-09 22:00N 51°43' W 129°50'2131.9
2019-Sep-09 22:00N 51°42' W 129°48'2016.4 350 / 101011.210.8 15.814.417.0
2019-Sep-09 20:47N 51°24' W 129°36'517.2
2019-Sep-09 20:30N 51°19' W 129°33'917.4
2019-Sep-09 20:00N 51°11' W 129°27'917.9
2019-Sep-09 19:30N 51°03' W 129°22'917.5
2019-Sep-09 19:00N 50°55' W 129°16'917.8
2019-Sep-09 18:30N 50°47' W 129°10'917.8
2019-Sep-09 18:00N 50°40' W 129°02'918.1
2019-Sep-09 17:30N 50°33' W 128°53'1218.1
2019-Sep-09 16:52N 50°23' W 128°42'1417.7
2019-Sep-09 16:03N 50°12' W 128°29'4019.3
2019-Sep-09 14:00N 49°42' W 127°48'5017.2 340 / 141010.210.8 16.013.318.0
2019-Sep-09 11:04N 49°12' W 126°47'118.4
2019-Sep-09 11:00N 49°11' W 126°45'918.0
2019-Sep-09 10:30N 49°07' W 126°33'918.0
2019-Sep-09 10:00N 49°03' W 126°21'4264.5
2019-Sep-09 10:00N 49°00' W 126°24'1122.0 290 / 61010.010.8 15.512.820.0
2019-Sep-09 09:30N 48°59' W 126°08'918.9
2019-Sep-09 09:00N 48°55' W 125°55'918.9
2019-Sep-09 08:30N 48°50' W 125°42'1019.3
2019-Sep-09 08:00N 48°46' W 125°29'918.9
2019-Sep-09 07:30N 48°42' W 125°16'918.3
2019-Sep-09 07:00N 48°38' W 125°04'918.4
2019-Sep-09 06:31N 48°34' W 124°51'918.7
2019-Sep-09 06:01N 48°29' W 124°39'918.6
2019-Sep-09 05:31N 48°26' W 124°26'918.3
2019-Sep-09 05:01N 48°22' W 124°13'918.4
2019-Sep-09 04:30N 48°19' W 124°00'918.7
2019-Sep-09 04:00N 48°16' W 123°47'1019.3
2019-Sep-09 03:30N 48°15' W 123°32'816.3
2019-Sep-09 03:00N 48°09' W 123°23'1716.8
2019-Sep-09 02:00N 48°12' W 122°58'918.7
2019-Sep-09 01:30N 48°10' W 122°45'918.9
2019-Sep-09 01:00N 48°02' W 122°38'919.2
2019-Sep-09 00:31N 47°54' W 122°29'918.5
2019-Sep-09 00:00N 47°45' W 122°26'816.1
2019-Sep-08 23:31N 47°37' W 122°25'1 2.7
2019-Sep-08 23:00N 47°38' W 122°23'0 0.0
2019-Sep-08 22:30N 47°38' W 122°23'0 0.0
2019-Sep-08 22:00N 47°38' W 122°23'0 0.0
2019-Sep-08 21:29N 47°38' W 122°23'0 0.0
2019-Sep-08 20:59N 47°38' W 122°23'0 0.0
2019-Sep-08 20:29N 47°38' W 122°23'0 0.0
2019-Sep-08 19:59N 47°38' W 122°23'0 0.0
2019-Sep-08 19:29N 47°38' W 122°23'0 0.0
2019-Sep-08 18:58N 47°38' W 122°23'0 0.0
2019-Sep-08 18:28N 47°38' W 122°23'0 0.0
2019-Sep-08 17:58N 47°38' W 122°23'0 0.0
2019-Sep-08 17:28N 47°38' W 122°23'0 0.0
2019-Sep-08 17:00N 47°38' W 122°23'0 0.0
2019-Sep-08 16:30N 47°38' W 122°23'0 0.0
2019-Sep-08 16:00N 47°38' W 122°23'0 0.0
2019-Sep-08 15:30N 47°38' W 122°23'0 0.0
2019-Sep-08 14:59N 47°38' W 122°23'0 0.0
2019-Sep-08 14:29N 47°38' W 122°23'0 0.0
2019-Sep-08 13:59N 47°38' W 122°23'0 0.0
2019-Sep-08 13:29N 47°38' W 122°23'0 0.0
2019-Sep-08 12:59N 47°38' W 122°23'0 0.7
2019-Sep-08 12:30N 47°37' W 122°23'4 8.5
2019-Sep-08 12:01N 47°40' W 122°28'713.4
2019-Sep-08 11:30N 47°46' W 122°27'715.0
2019-Sep-08 11:00N 47°53' W 122°29'914.2
2019-Sep-08 10:25N 48°00' W 122°37'716.3
2019-Sep-08 10:00N 48°07' W 122°40'815.7
2019-Sep-08 09:30N 48°11' W 122°50'917.5
2019-Sep-08 09:01N 48°12' W 123°03'917.4
2019-Sep-08 08:30N 48°11' W 123°16'714.7
2019-Sep-08 08:00N 48°11' W 123°27'815.8
2019-Sep-08 07:31N 48°19' W 123°27'510.2
2019-Sep-08 07:00N 48°24' W 123°25'2 2.9
2019-Sep-08 06:28N 48°25' W 123°24'0 0.0
2019-Sep-08 05:58N 48°25' W 123°24'0 0.0
2019-Sep-08 05:30N 48°25' W 123°24'0 0.0
2019-Sep-08 04:57N 48°25' W 123°24'0 0.0
2019-Sep-08 04:30N 48°25' W 123°24'0 0.0
2019-Sep-08 04:00N 48°25' W 123°24'0 0.0
2019-Sep-08 03:30N 48°25' W 123°24'0 0.0
2019-Sep-08 02:59N 48°25' W 123°24'0 0.0
2019-Sep-08 02:29N 48°25' W 123°24'0 0.0
2019-Sep-08 01:59N 48°25' W 123°24'0 0.3
2019-Sep-08 01:30N 48°25' W 123°24'3 6.4
2019-Sep-08 01:00N 48°22' W 123°24'611.7
2019-Sep-08 00:30N 48°16' W 123°27'611.9
2019-Sep-08 00:00N 48°14' W 123°35'713.3
2019-Sep-07 23:30N 48°14' W 123°45'713.3
2019-Sep-07 23:00N 48°14' W 123°55'713.8
2019-Sep-07 22:30N 48°17' W 124°05'713.8
2019-Sep-07 22:00N 48°19' W 124°14'713.7
2019-Sep-07 21:29N 48°22' W 124°24'713.5
2019-Sep-07 21:00N 48°25' W 124°33'713.4
2019-Sep-07 20:30N 48°28' W 124°42'713.0
2019-Sep-07 20:00N 48°29' W 124°51'713.3
2019-Sep-07 19:30N 48°29' W 125°02'713.9
2019-Sep-07 19:00N 48°30' W 125°12'815.8
2019-Sep-07 18:31N 48°34' W 125°22'917.7
2019-Sep-07 18:01N 48°39' W 125°33'917.5
2019-Sep-07 17:31N 48°44' W 125°43'917.5
2019-Sep-07 17:01N 48°49' W 125°54'917.0
2019-Sep-07 16:31N 48°54' W 126°05'917.1
2019-Sep-07 16:01N 48°59' W 126°16'917.1
2019-Sep-07 15:30N 49°04' W 126°27'917.1
2019-Sep-07 15:00N 49°09' W 126°37'1117.6
2019-Sep-07 14:23N 49°15' W 126°51'4 9.7
2019-Sep-07 14:00N 49°12' W 126°54'6020.0 140 / 101017.110.8 15.512.820.0
2019-Sep-07 11:00N 49°54' W 128°00'536.8 120 / 201017.010.8 14.813.016.0
2019-Sep-07 10:52N 49°55' W 128°07'2017.8
2019-Sep-07 09:46N 50°08' W 128°30'617.4
2019-Sep-07 09:24N 50°13' W 128°37'817.6
2019-Sep-07 08:58N 50°18' W 128°46'917.8
2019-Sep-07 08:29N 50°24' W 128°56'  
Track history (hours):
 
Tides and Currents Weather Stations Pressure Air Temp Water Temp Dewpoint Dewpoint Depression Visibility Wind Speed Wind Dir Waves Ship Positions

Star Princess

Operator: Princess Cruises

Last reported at 2019-Sep-17 08:00 UTC. Time now 2019-Sep-17 08:19 UTC.
Position N 54°19' W 131°15'.

Length 289.6 m; beam 36 m; draft 8.4 m.

Type: Ship. MMSI: 310361000.

Date/timePositionNaut miles runAvg speedWind from/ knotsBaromVisibWave heightAir tempDewpointWater temp
2019-Sep-17 08:00N 54°19' W 131°15'612.8
2019-Sep-17 07:30N 54°13' W 131°15'713.3
2019-Sep-17 07:00N 54°06' W 131°15'713.6
2019-Sep-17 06:30N 53°60' W 131°13'713.8
2019-Sep-17 06:00N 53°53' W 131°11'714.4
2019-Sep-17 05:30N 53°46' W 131°08'917.9
2019-Sep-17 05:00N 53°37' W 131°05'917.8
2019-Sep-17 04:31N 53°28' W 131°01'917.7
2019-Sep-17 04:00N 53°20' W 130°57'1217.8
2019-Sep-17 03:18N 53°09' W 130°49'2921.9
2019-Sep-17 02:00N 52°42' W 130°30'6015.0 130 / 301001.610.8 14.513.216.0
2019-Sep-16 22:00N 51°48' W 129°48'1539.5 170 / 231001.610.8 15.512.416.0
2019-Sep-16 21:37N 51°34' W 129°43'2718.5
2019-Sep-16 20:09N 51°09' W 129°26'518.7
2019-Sep-16 19:53N 51°04' W 129°23'617.5
2019-Sep-16 19:30N 50°58' W 129°18'918.1
2019-Sep-16 19:00N 50°50' W 129°13'917.0
2019-Sep-16 18:27N 50°42' W 129°04'714.6
2019-Sep-16 18:00N 50°36' W 129°00'423.2 190 / 121007.310.8 14.010.217.0
2019-Sep-16 17:48N 50°34' W 128°54'517.3
2019-Sep-16 17:31N 50°30' W 128°49'1017.6
2019-Sep-16 16:55N 50°22' W 128°39'1117.8
2019-Sep-16 16:17N 50°13' W 128°28'4318.8
2019-Sep-16 14:00N 49°42' W 127°42'4516.3 030 / 71012.110.8 14.011.217.0
2019-Sep-16 11:14N 49°14' W 126°48'517.9
2019-Sep-16 10:58N 49°11' W 126°42'818.1
2019-Sep-16 10:30N 49°07' W 126°31'918.2
2019-Sep-16 10:00N 49°02' W 126°19'918.6
2019-Sep-16 09:30N 48°58' W 126°06'918.8
2019-Sep-16 09:00N 48°54' W 125°53'918.4
2019-Sep-16 08:30N 48°50' W 125°41'918.6
2019-Sep-16 08:00N 48°47' W 125°28'918.6
2019-Sep-16 07:30N 48°42' W 125°16'918.9
2019-Sep-16 07:00N 48°38' W 125°03'918.2
2019-Sep-16 06:30N 48°33' W 124°51'918.6
2019-Sep-16 06:00N 48°29' W 124°38'918.7
2019-Sep-16 05:30N 48°26' W 124°25'1019.0
2019-Sep-16 05:00N 48°22' W 124°12'1019.5
2019-Sep-16 04:30N 48°18' W 123°58'1019.3
2019-Sep-16 04:00N 48°16' W 123°44'1019.4
2019-Sep-16 03:30N 48°15' W 123°30'816.3
2019-Sep-16 03:00N 48°09' W 123°21'916.8
2019-Sep-16 02:30N 48°12' W 123°10'917.6
2019-Sep-16 02:00N 48°12' W 122°57'8517.2
2019-Sep-16 02:00N 48°06' W 122°48'5 7.8 280 / 111010.1 5.4 13.011.112.0
2019-Sep-16 01:19N 48°08' W 122°41'516.6
2019-Sep-16 01:00N 48°03' W 122°38'816.5
2019-Sep-16 00:30N 47°56' W 122°30'917.7
2019-Sep-16 00:00N 47°48' W 122°26'917.6
2019-Sep-15 23:30N 47°39' W 122°27'3 6.0
2019-Sep-15 23:00N 47°38' W 122°23'0 0.0
2019-Sep-15 22:28N 47°38' W 122°23'0 0.0
2019-Sep-15 22:01N 47°38' W 122°23'0 0.0
2019-Sep-15 21:30N 47°38' W 122°23'0 0.0
2019-Sep-15 21:00N 47°38' W 122°23'0 0.0
2019-Sep-15 20:30N 47°38' W 122°23'0 0.0
2019-Sep-15 20:00N 47°38' W 122°23'0 0.0
2019-Sep-15 19:29N 47°38' W 122°23'0 0.0
2019-Sep-15 18:59N 47°38' W 122°23'0 0.0
2019-Sep-15 18:29N 47°38' W 122°23'0 0.0
2019-Sep-15 17:59N 47°38' W 122°23'0 0.0
2019-Sep-15 17:28N 47°38' W 122°23'0 0.0
2019-Sep-15 16:58N 47°38' W 122°23'0 0.0
2019-Sep-15 16:28N 47°38' W 122°23'0 0.0
2019-Sep-15 16:00N 47°38' W 122°23'0 0.0
2019-Sep-15 15:29N 47°38' W 122°23'0 0.0
2019-Sep-15 14:59N 47°38' W 122°23'0 0.0
2019-Sep-15 14:29N 47°38' W 122°23'0 0.0
2019-Sep-15 13:59N 47°38' W 122°23'0 0.0
2019-Sep-15 13:29N 47°38' W 122°23'0 0.3
2019-Sep-15 13:00N 47°38' W 122°23'3 5.0
2019-Sep-15 12:30N 47°38' W 122°27'713.3
2019-Sep-15 12:00N 47°44' W 122°27'612.9
2019-Sep-15 11:30N 47°51' W 122°29'612.3
2019-Sep-15 11:00N 47°56' W 122°32'713.7
2019-Sep-15 10:30N 48°02' W 122°39'612.7
2019-Sep-15 10:00N 48°08' W 122°43'713.7
2019-Sep-15 09:29N 48°11' W 122°52'714.1
2019-Sep-15 09:00N 48°12' W 123°02'816.8
2019-Sep-15 08:30N 48°11' W 123°15'714.6
2019-Sep-15 08:00N 48°10' W 123°25'510.8
2019-Sep-15 07:31N 48°15' W 123°30'815.2
2019-Sep-15 07:00N 48°22' W 123°26'4 7.0
2019-Sep-15 06:30N 48°25' W 123°24'0 0.0
2019-Sep-15 06:00N 48°25' W 123°24'0 0.0
2019-Sep-15 05:30N 48°25' W 123°24'0 0.0
2019-Sep-15 04:59N 48°25' W 123°24'0 0.0
2019-Sep-15 04:29N 48°25' W 123°24'0 0.0
2019-Sep-15 03:59N 48°25' W 123°24'0 0.0
2019-Sep-15 03:29N 48°25' W 123°24'0 0.0
2019-Sep-15 02:59N 48°25' W 123°24'0 0.0
2019-Sep-15 02:28N 48°25' W 123°24'0 0.0
2019-Sep-15 01:58N 48°25' W 123°24'0 0.0
2019-Sep-15 01:29N 48°25' W 123°24'1 1.2
2019-Sep-15 01:00N 48°25' W 123°24'611.1
2019-Sep-15 00:31N 48°19' W 123°25'612.2
2019-Sep-15 00:00N 48°14' W 123°31'612.7
2019-Sep-14 23:30N 48°14' W 123°40'713.0
2019-Sep-14 23:00N 48°14' W 123°50'713.1
2019-Sep-14 22:31N 48°15' W 123°60'713.4
2019-Sep-14 22:00N 48°18' W 124°09'713.4
2019-Sep-14 21:30N 48°21' W 124°18'713.3
2019-Sep-14 21:01N 48°24' W 124°27'713.3
2019-Sep-14 20:30N 48°26' W 124°36'713.4
2019-Sep-14 20:00N 48°29' W 124°46'713.9
2019-Sep-14 19:30N 48°29' W 124°56'713.8
2019-Sep-14 19:00N 48°29' W 125°06'612.7
2019-Sep-14 18:30N 48°31' W 125°15'612.3
2019-Sep-14 18:00N 48°35' W 125°23'6362.7
2019-Sep-14 18:00N 48°30' W 125°18'1428.3 190 / 381010.1 5.4 16.014.315.0
2019-Sep-14 17:30N 48°39' W 125°33'817.0
2019-Sep-14 17:00N 48°44' W 125°44'816.8
2019-Sep-14 16:30N 48°49' W 125°54'917.1
2019-Sep-14 16:00N 48°54' W 126°05'917.3
2019-Sep-14 15:30N 48°59' W 126°15'917.4
2019-Sep-14 15:00N 49°04' W 126°26'917.5
2019-Sep-14 14:29N 49°09' W 126°38'918.3
2019-Sep-14 14:00N 49°14' W 126°49'2174.1
2019-Sep-14 14:00N 49°12' W 126°48'8718.1 200 / 331013.1 5.4 16.515.718.0
2019-Sep-14 09:13N 50°08' W 128°30'2118.2
2019-Sep-14 08:05N 50°22' W 128°53'518.2
2019-Sep-14 07:49N 50°26' W 128°59'1918.0
2019-Sep-14 06:45N 50°38' W 129°22'5815.6
2019-Sep-14 03:00N 51°18' W 130°30'25521.3 220 / 321015.3 5.4 15.514.617.0
2019-Sep-13 15:00N 55°00' W 134°00'   170 / 301003.1 5.4 13.512.612.0
2019-Sep-10 12:34N 55°13' W 131°24'712.1
2019-Sep-10 11:57N 55°10' W 131°12'1211.8
2019-Sep-10 10:58N 54°58' W 131°08'612.1
2019-Sep-10 10:30N 54°53' W 131°08'611.4
2019-Sep-10 10:00N 54°47' W 131°10'712.3
2019-Sep-10 09:27N 54°41' W 131°14'511.7
2019-Sep-10 09:00N 54°36' W 131°16'612.7
2019-Sep-10 08:30N 54°29' W 131°16'713.5
2019-Sep-10 08:00N 54°23' W 131°15'713.8
2019-Sep-10 07:30N 54°16' W 131°15'713.7
2019-Sep-10 07:00N 54°09' W 131°15'713.5
2019-Sep-10 06:30N 54°02' W 131°14'713.7
2019-Sep-10 06:00N 53°55' W 131°12'713.6
2019-Sep-10 05:30N 53°49' W 131°09'815.4
2019-Sep-10 05:00N 53°41' W 131°06'918.4
2019-Sep-10 04:31N 53°32' W 131°03'918.4
2019-Sep-10 04:00N 53°23' W 130°59'918.2
2019-Sep-10 03:30N 53°15' W 130°53'1618.4
2019-Sep-10 02:39N 53°01' W 130°43'1320.0
2019-Sep-10 02:00N 52°48' W 130°36'1016.0 330 / 151011.310.8 17.014.416.0
2019-Sep-10 01:23N 52°40' W 130°28'718.1
2019-Sep-10 01:00N 52°33' W 130°24'918.1
2019-Sep-10 00:30N 52°25' W 130°18'918.3
2019-Sep-10 00:00N 52°16' W 130°13'918.4
2019-Sep-09 23:30N 52°08' W 130°07'918.1
2019-Sep-09 23:00N 51°59' W 130°01'917.8
2019-Sep-09 22:30N 51°51' W 129°55'917.3
2019-Sep-09 22:00N 51°43' W 129°50'2131.9
2019-Sep-09 22:00N 51°42' W 129°48'2016.4 350 / 101011.210.8 15.814.417.0
2019-Sep-09 20:47N 51°24' W 129°36'517.2
2019-Sep-09 20:30N 51°19' W 129°33'917.4
2019-Sep-09 20:00N 51°11' W 129°27'917.9
2019-Sep-09 19:30N 51°03' W 129°22'917.5
2019-Sep-09 19:00N 50°55' W 129°16'917.8
2019-Sep-09 18:30N 50°47' W 129°10'917.8
2019-Sep-09 18:00N 50°40' W 129°02'918.1
2019-Sep-09 17:30N 50°33' W 128°53'1218.1
2019-Sep-09 16:52N 50°23' W 128°42'1417.7
2019-Sep-09 16:03N 50°12' W 128°29'4019.3
2019-Sep-09 14:00N 49°42' W 127°48'5017.2 340 / 141010.210.8 16.013.318.0
2019-Sep-09 11:04N 49°12' W 126°47'118.4
2019-Sep-09 11:00N 49°11' W 126°45'918.0
2019-Sep-09 10:30N 49°07' W 126°33'918.0
2019-Sep-09 10:00N 49°03' W 126°21'4264.5
2019-Sep-09 10:00N 49°00' W 126°24'1122.0 290 / 61010.010.8 15.512.820.0
2019-Sep-09 09:30N 48°59' W 126°08'918.9
2019-Sep-09 09:00N 48°55' W 125°55'918.9
2019-Sep-09 08:30N 48°50' W 125°42'1019.3
2019-Sep-09 08:00N 48°46' W 125°29'918.9
2019-Sep-09 07:30N 48°42' W 125°16'918.3
2019-Sep-09 07:00N 48°38' W 125°04'918.4
2019-Sep-09 06:31N 48°34' W 124°51'918.7
2019-Sep-09 06:01N 48°29' W 124°39'918.6
2019-Sep-09 05:31N 48°26' W 124°26'918.3
2019-Sep-09 05:01N 48°22' W 124°13'918.4
2019-Sep-09 04:30N 48°19' W 124°00'918.7
2019-Sep-09 04:00N 48°16' W 123°47'1019.3
2019-Sep-09 03:30N 48°15' W 123°32'816.3
2019-Sep-09 03:00N 48°09' W 123°23'1716.8
2019-Sep-09 02:00N 48°12' W 122°58'918.7
2019-Sep-09 01:30N 48°10' W 122°45'918.9
2019-Sep-09 01:00N 48°02' W 122°38'919.2
2019-Sep-09 00:31N 47°54' W 122°29'918.5
2019-Sep-09 00:00N 47°45' W 122°26'816.1
2019-Sep-08 23:31N 47°37' W 122°25'1 2.7
2019-Sep-08 23:00N 47°38' W 122°23'0 0.0
2019-Sep-08 22:30N 47°38' W 122°23'0 0.0
2019-Sep-08 22:00N 47°38' W 122°23'0 0.0
2019-Sep-08 21:29N 47°38' W 122°23'0 0.0
2019-Sep-08 20:59N 47°38' W 122°23'0 0.0
2019-Sep-08 20:29N 47°38' W 122°23'0 0.0
2019-Sep-08 19:59N 47°38' W 122°23'0 0.0
2019-Sep-08 19:29N 47°38' W 122°23'0 0.0
2019-Sep-08 18:58N 47°38' W 122°23'0 0.0
2019-Sep-08 18:28N 47°38' W 122°23'0 0.0
2019-Sep-08 17:58N 47°38' W 122°23'0 0.0
2019-Sep-08 17:28N 47°38' W 122°23'0 0.0
2019-Sep-08 17:00N 47°38' W 122°23'0 0.0
2019-Sep-08 16:30N 47°38' W 122°23'0 0.0
2019-Sep-08 16:00N 47°38' W 122°23'0 0.0
2019-Sep-08 15:30N 47°38' W 122°23'0 0.0
2019-Sep-08 14:59N 47°38' W 122°23'0 0.0
2019-Sep-08 14:29N 47°38' W 122°23'0 0.0
2019-Sep-08 13:59N 47°38' W 122°23'0 0.0
2019-Sep-08 13:29N 47°38' W 122°23'0 0.0
2019-Sep-08 12:59N 47°38' W 122°23'0 0.7
2019-Sep-08 12:30N 47°37' W 122°23'4 8.5
2019-Sep-08 12:01N 47°40' W 122°28'713.4
2019-Sep-08 11:30N 47°46' W 122°27'715.0
2019-Sep-08 11:00N 47°53' W 122°29'914.2
2019-Sep-08 10:25N 48°00' W 122°37'716.3
2019-Sep-08 10:00N 48°07' W 122°40'815.7
2019-Sep-08 09:30N 48°11' W 122°50'917.5
2019-Sep-08 09:01N 48°12' W 123°03'917.4
2019-Sep-08 08:30N 48°11' W 123°16'714.7
2019-Sep-08 08:00N 48°11' W 123°27'815.8
2019-Sep-08 07:31N 48°19' W 123°27'510.2
2019-Sep-08 07:00N 48°24' W 123°25'2 2.9
2019-Sep-08 06:28N 48°25' W 123°24'0 0.0
2019-Sep-08 05:58N 48°25' W 123°24'0 0.0
2019-Sep-08 05:30N 48°25' W 123°24'0 0.0
2019-Sep-08 04:57N 48°25' W 123°24'0 0.0
2019-Sep-08 04:30N 48°25' W 123°24'0 0.0
2019-Sep-08 04:00N 48°25' W 123°24'0 0.0
2019-Sep-08 03:30N 48°25' W 123°24'0 0.0
2019-Sep-08 02:59N 48°25' W 123°24'0 0.0
2019-Sep-08 02:29N 48°25' W 123°24'0 0.0
2019-Sep-08 01:59N 48°25' W 123°24'0 0.3
2019-Sep-08 01:30N 48°25' W 123°24'3 6.4
2019-Sep-08 01:00N 48°22' W 123°24'611.7
2019-Sep-08 00:30N 48°16' W 123°27'611.9
2019-Sep-08 00:00N 48°14' W 123°35'713.3
2019-Sep-07 23:30N 48°14' W 123°45'713.3
2019-Sep-07 23:00N 48°14' W 123°55'713.8
2019-Sep-07 22:30N 48°17' W 124°05'713.8
2019-Sep-07 22:00N 48°19' W 124°14'713.7
2019-Sep-07 21:29N 48°22' W 124°24'713.5
2019-Sep-07 21:00N 48°25' W 124°33'713.4
2019-Sep-07 20:30N 48°28' W 124°42'713.0
2019-Sep-07 20:00N 48°29' W 124°51'713.3
2019-Sep-07 19:30N 48°29' W 125°02'713.9
2019-Sep-07 19:00N 48°30' W 125°12'815.8
2019-Sep-07 18:31N 48°34' W 125°22'917.7
2019-Sep-07 18:01N 48°39' W 125°33'917.5
2019-Sep-07 17:31N 48°44' W 125°43'917.5
2019-Sep-07 17:01N 48°49' W 125°54'917.0
2019-Sep-07 16:31N 48°54' W 126°05'917.1
2019-Sep-07 16:01N 48°59' W 126°16'917.1
2019-Sep-07 15:30N 49°04' W 126°27'917.1
2019-Sep-07 15:00N 49°09' W 126°37'1117.6
2019-Sep-07 14:23N 49°15' W 126°51'4 9.7
2019-Sep-07 14:00N 49°12' W 126°54'6020.0 140 / 101017.110.8 15.512.820.0
2019-Sep-07 11:00N 49°54' W 128°00'536.8 120 / 201017.010.8 14.813.016.0
2019-Sep-07 10:52N 49°55' W 128°07'2017.8
2019-Sep-07 09:46N 50°08' W 128°30'617.4
2019-Sep-07 09:24N 50°13' W 128°37'817.6
2019-Sep-07 08:58N 50°18' W 128°46'917.8
2019-Sep-07 08:29N 50°24' W 128°56'  

Dump ship's entire track history